Accueil
METAR-TAF:

METAR-TAF

Aéroports :

Hagåtña, Guam, États-Unis

Aéroport international Antonio-B.-Won-Pat de Guam

latitude: 13-29N, longitude: 144-48E, altitude: 91 m

Observation

Le bulletin a été fait il y a 44 minutes, à 00:54 UTC
Vent 20 kt de est avec des rafales jusqu'à 26 kt
Température 31°C
Humidité 63%
Pression 1013 hPa
Visibilité: 16.1 km
Ciel clair

METAR: PGUM 250054Z 08020G26KT 10SM CLR 31/23 A2990 RMK AO2 PK WND 07029/0014 SLP118 T03110228

Heure: 11:38 (01:38 UTC)

Prévision

Le bulletin a été fait il y a 2 heures et 11 minutes, à 23:27 UTC
Prévision valable du 25 à 00 UTC au 26 à 06 UTC
Vent 16 kt de est/nord-est avec des rafales jusqu'à 26 kt
Visibilité: 10 km
Nuages épars à une hauteur de 2400 ft
A partir de 25 à 0800 UTC
Vent 15 kt de est/nord-est
Visibilité: 10 km
Nuages épars à une hauteur de 2000 ft
averses à proximité

TAF: PGUM 242327Z 2500/2606 07016G26KT P6SM SCT024 FM250800 06015KT P6SM VCSH SCT020

Observations et prévisions météorologiques de plus de 4000 aéroports (messages METAR et TAF).

Les stations disponibles sont représentées par des disques jaunes et rouges sur la carte.

Passer la souris dessus pour voir le nom de la station.

Cliquer dessus pour voir les observations et prévisions météorologiques.

Pour changer de carte: cliquez sur les boutons verts avec une croix noire pour zoomer, sur le bouton vert avec un tiret pour effectuer un zoom arrière, ou sur les flèches vertes pour les cartes adjacentes.


METAR-TAF: